LiveATC.Net - Listen to live air traffic control over the Internet!


ICAO: KGAI  IATA: GAI   Airport: Montgomery County Airpark
City: Gaithersburg   State/Province: Maryland
Country: United States   Continent: North America
KGAI METAR Weather: KGAI 210056Z AUTO 00000KT 9SM OVC010 12/11 A2995 RMK AO2 SLP155 T01170111 PNO $
KGAI Flight Activity (FlightAware)
KGAI Airport Info   (iFlightPlanner)
KGAI VFR Sectional Chart   (iFlightPlanner) 
KGAI IFR Low Chart   (iFlightPlanner) 

KGAI CTAF/UNICOM
Feed Status: UP   Listeners: 0
Listen in your browser - HTML5 player (in browser, HTML5)
Click here to listen with your own player (launches your MP3 player)
KGAI CTAF/UNICOM Audio Archives
FacilityFrequency
Gaithersburg CTAF123.075
Feed sponsored by:

NOTICE

Unauthorized use prohibited. See LiveATC.net Terms of Service


Airport/ARTCC Code
Frequency Search
(e.g., 124.400, 128.75)
Site-wide search
 


Browse LiveATC Feeds
Top 50 LiveATC Feeds
LiveATC Feed Map
Bad Weather Areas

LiveATC FAQ
Offer LiveATC feed
Contact LiveATC.net
Press Inquiries

LiveATC on iPhone
LiveATC on Android

Windows Phone
Windows 8/10

LiveATC Mobile
(Mobile browser)

ATC Audio Archives
Interesting Recordings

LiveATC Forums


Home Page
About LiveATC.net
Make a Donation
Terms of Use
Privacy Policy

Canadian Air Freqs

AIRMETs/SIGMETs

FAA Airport Status
Nat'l Airspace Status
Arrival Demand Charts


Server Software By:
Icecast.org
Liquidsoap